createdAt,value
2022-08-25T00:02:56.661Z,17.15
2022-08-25T00:06:00.469Z,17.05
2022-08-25T00:09:06.035Z,17.00
2022-08-25T00:12:08.802Z,17.04
2022-08-25T00:15:11.267Z,17.12
2022-08-25T00:18:19.941Z,17.15
2022-08-25T00:21:22.630Z,17.12
2022-08-25T00:24:25.370Z,17.11
2022-08-25T00:27:28.253Z,17.09
2022-08-25T00:30:30.579Z,17.09
2022-08-25T00:33:32.583Z,17.08
2022-08-25T00:36:34.530Z,17.14
2022-08-25T00:39:37.617Z,17.15
2022-08-25T00:42:40.370Z,17.21
2022-08-25T00:45:42.314Z,17.20
2022-08-25T00:48:45.931Z,17.18
2022-08-25T00:51:54.880Z,17.11
2022-08-25T00:55:08.172Z,17.04
2022-08-25T00:58:16.963Z,16.98
2022-08-25T01:01:18.985Z,16.99
2022-08-25T01:04:21.306Z,16.94
2022-08-25T01:07:24.149Z,16.81
2022-08-25T01:10:26.653Z,16.78
2022-08-25T01:13:38.904Z,16.79
2022-08-25T01:16:43.399Z,16.73
2022-08-25T01:19:45.269Z,16.62
2022-08-25T01:22:55.105Z,16.53
2022-08-25T01:26:04.224Z,16.46
2022-08-25T01:29:25.522Z,16.40
2022-08-25T01:32:27.564Z,16.41
2022-08-25T01:35:29.610Z,16.42
2022-08-25T01:38:31.592Z,16.42
2022-08-25T01:41:59.119Z,16.44
2022-08-25T01:45:01.057Z,16.43
2022-08-25T01:48:04.013Z,16.42
2022-08-25T01:51:06.267Z,16.34
2022-08-25T01:54:08.228Z,16.30
2022-08-25T01:57:10.129Z,16.27
2022-08-25T02:00:14.540Z,16.25
2022-08-25T02:03:19.113Z,16.22
2022-08-25T02:06:33.114Z,16.14
2022-08-25T02:09:36.558Z,16.09
2022-08-25T02:12:38.410Z,16.06
2022-08-25T02:15:43.190Z,16.07
2022-08-25T02:18:45.714Z,16.07
2022-08-25T02:21:47.921Z,16.02
2022-08-25T02:24:50.205Z,15.98
2022-08-25T02:27:51.954Z,15.92
2022-08-25T02:30:58.537Z,15.95
2022-08-25T02:34:04.331Z,15.99
2022-08-25T02:37:06.295Z,15.95
2022-08-25T02:40:09.568Z,15.90
2022-08-25T02:43:11.549Z,15.90
2022-08-25T02:46:13.579Z,15.86
2022-08-25T02:49:15.563Z,15.83
2022-08-25T02:52:17.685Z,15.81
2022-08-25T02:55:19.588Z,15.80
2022-08-25T02:58:21.997Z,15.77
2022-08-25T03:01:28.694Z,15.75
2022-08-25T03:04:32.296Z,15.72
2022-08-25T03:07:35.630Z,15.70
2022-08-25T03:10:37.717Z,15.69
2022-08-25T03:13:40.116Z,15.72
2022-08-25T03:16:42.936Z,15.77
2022-08-25T03:19:48.361Z,15.82
2022-08-25T03:22:50.621Z,15.82
2022-08-25T03:26:13.863Z,15.84
2022-08-25T03:29:15.673Z,15.84
2022-08-25T03:32:18.104Z,15.88
2022-08-25T03:35:20.185Z,15.90
2022-08-25T03:38:23.660Z,15.92
2022-08-25T03:41:32.730Z,15.89
2022-08-25T03:44:34.592Z,15.91
2022-08-25T03:47:36.420Z,15.89
2022-08-25T03:50:44.625Z,15.82
2022-08-25T03:53:54.436Z,15.75
2022-08-25T03:56:56.236Z,15.73
2022-08-25T03:59:57.982Z,15.70
2022-08-25T04:02:59.749Z,15.66
2022-08-25T04:06:03.542Z,15.67
2022-08-25T04:09:05.469Z,15.66
2022-08-25T04:12:07.461Z,15.70
2022-08-25T04:15:09.822Z,15.72
2022-08-25T04:18:13.476Z,15.75
2022-08-25T04:21:15.728Z,15.81
2022-08-25T04:24:17.665Z,15.85
2022-08-25T04:27:20.198Z,15.92
2022-08-25T04:30:22.100Z,16.02
2022-08-25T04:33:23.897Z,16.14
2022-08-25T04:36:25.654Z,16.20
2022-08-25T04:39:27.398Z,16.23
2022-08-25T04:42:29.255Z,16.31
2022-08-25T04:45:31.242Z,16.44
2022-08-25T04:48:33.737Z,16.60
2022-08-25T04:51:39.776Z,16.71
2022-08-25T04:54:42.215Z,16.84
2022-08-25T04:57:44.222Z,16.90
2022-08-25T05:00:46.928Z,16.90
2022-08-25T05:03:54.170Z,16.94
2022-08-25T05:06:56.961Z,17.06
2022-08-25T05:09:58.905Z,17.10
2022-08-25T05:13:01.298Z,17.16
2022-08-25T05:16:04.203Z,17.38
2022-08-25T05:19:07.372Z,17.64
2022-08-25T05:22:09.170Z,17.89
2022-08-25T05:25:11.070Z,18.12
2022-08-25T05:28:13.378Z,18.37
2022-08-25T05:31:15.400Z,18.61
2022-08-25T05:34:19.121Z,18.86
2022-08-25T05:37:20.921Z,19.11
2022-08-25T05:40:23.721Z,19.37
2022-08-25T05:43:25.509Z,19.57
2022-08-25T05:46:27.471Z,19.81
2022-08-25T05:49:33.631Z,20.04
2022-08-25T05:52:36.321Z,20.21
2022-08-25T05:55:38.146Z,20.38
2022-08-25T05:58:40.934Z,20.59
2022-08-25T06:02:02.213Z,20.71
2022-08-25T06:05:05.134Z,20.88
2022-08-25T06:08:07.305Z,21.05
2022-08-25T06:11:09.469Z,21.17
2022-08-25T06:14:11.784Z,21.44
2022-08-25T06:17:13.709Z,21.68
2022-08-25T06:20:18.796Z,22.00
2022-08-25T06:23:24.070Z,22.41
2022-08-25T06:26:26.478Z,22.61
2022-08-25T06:29:28.381Z,22.95
2022-08-25T06:32:37.860Z,23.43
2022-08-25T06:35:43.889Z,23.84
2022-08-25T06:38:47.048Z,24.12
2022-08-25T06:41:53.816Z,24.51
2022-08-25T06:44:55.590Z,24.78
2022-08-25T06:47:59.401Z,24.79
2022-08-25T06:51:06.107Z,24.81
2022-08-25T06:54:10.336Z,25.12
2022-08-25T06:57:12.014Z,25.03
2022-08-25T07:00:14.528Z,24.88
2022-08-25T07:03:16.789Z,24.63
2022-08-25T07:06:18.820Z,24.46
2022-08-25T07:09:20.819Z,24.81
2022-08-25T07:12:24.750Z,25.30
2022-08-25T07:15:27.732Z,25.62
2022-08-25T07:18:29.887Z,25.61
2022-08-25T07:21:35.648Z,25.73
2022-08-25T07:24:37.786Z,26.04
2022-08-25T07:27:41.260Z,26.18
2022-08-25T07:30:45.147Z,26.43
2022-08-25T07:34:12.408Z,26.64
2022-08-25T07:37:32.300Z,26.97
2022-08-25T07:40:43.050Z,27.14
2022-08-25T07:43:45.012Z,27.68
2022-08-25T07:46:46.907Z,28.23
2022-08-25T07:49:48.723Z,28.72
2022-08-25T07:53:05.392Z,29.19
2022-08-25T07:56:12.390Z,29.36
2022-08-25T07:59:14.421Z,29.25
2022-08-25T08:02:18.975Z,29.45
2022-08-25T08:05:24.005Z,29.78
2022-08-25T08:08:26.210Z,29.59
2022-08-25T08:11:45.120Z,29.31
2022-08-25T08:14:53.902Z,29.34
2022-08-25T08:17:56.509Z,29.06
2022-08-25T08:21:00.077Z,29.22
2022-08-25T08:24:05.045Z,29.62
2022-08-25T08:27:13.768Z,30.18
2022-08-25T08:30:15.627Z,30.20
2022-08-25T08:33:17.355Z,30.16
2022-08-25T08:36:19.685Z,30.40
2022-08-25T08:39:22.606Z,30.77
2022-08-25T08:43:18.563Z,30.57
2022-08-25T08:46:22.666Z,30.34
2022-08-25T08:49:35.256Z,30.22
2022-08-25T08:52:53.927Z,29.97
2022-08-25T08:55:58.009Z,30.20
2022-08-25T08:59:06.854Z,30.27
2022-08-25T09:02:38.858Z,30.14
2022-08-25T09:05:47.254Z,30.43
2022-08-25T09:08:49.228Z,30.78
2022-08-25T09:12:17.197Z,31.14
2022-08-25T09:16:06.010Z,31.28
2022-08-25T09:19:27.332Z,31.25
2022-08-25T09:23:20.201Z,31.64
2022-08-25T09:26:54.773Z,32.42
2022-08-25T09:30:05.322Z,32.87
2022-08-25T09:33:08.168Z,33.13
2022-08-25T09:36:10.203Z,33.39
2022-08-25T09:39:12.378Z,32.94
2022-08-25T09:42:14.417Z,32.42
2022-08-25T09:45:16.460Z,32.20
2022-08-25T09:48:40.744Z,32.17
2022-08-25T09:51:44.425Z,32.22
2022-08-25T09:54:46.807Z,32.55
2022-08-25T09:57:52.918Z,32.88
2022-08-25T10:01:03.893Z,33.24
2022-08-25T10:04:07.038Z,32.87
2022-08-25T10:07:26.736Z,32.89
2022-08-25T10:10:32.722Z,33.18
2022-08-25T10:13:44.366Z,33.90
2022-08-25T10:16:47.655Z,34.22
2022-08-25T10:19:49.933Z,34.46
2022-08-25T10:23:09.937Z,34.46
2022-08-25T10:26:53.546Z,34.57
2022-08-25T10:30:13.478Z,34.73
2022-08-25T10:33:47.633Z,34.90
2022-08-25T10:37:37.777Z,35.24
2022-08-25T10:40:53.349Z,35.40
2022-08-25T10:44:51.114Z,35.43
2022-08-25T10:48:08.242Z,35.73
2022-08-25T10:51:39.473Z,36.15
2022-08-25T10:55:05.382Z,36.13
2022-08-25T10:59:06.435Z,35.81
2022-08-25T11:02:27.308Z,35.95
2022-08-25T11:05:36.991Z,36.13
2022-08-25T11:08:48.941Z,36.41
2022-08-25T11:11:58.218Z,36.46
2022-08-25T11:15:04.161Z,36.27
2022-08-25T11:18:14.539Z,36.17
2022-08-25T11:21:22.260Z,36.34
2022-08-25T11:24:45.369Z,36.60
2022-08-25T11:28:18.378Z,36.41
2022-08-25T11:31:21.822Z,36.39
2022-08-25T11:34:26.533Z,36.39
2022-08-25T11:37:32.359Z,36.37
2022-08-25T11:40:58.943Z,36.50
2022-08-25T11:44:18.975Z,36.64
2022-08-25T11:47:40.085Z,36.77
2022-08-25T11:51:33.755Z,36.17
2022-08-25T11:54:44.742Z,36.18
2022-08-25T11:57:53.217Z,36.53
2022-08-25T12:00:58.535Z,36.77
2022-08-25T12:04:14.858Z,36.78
2022-08-25T12:07:23.765Z,36.83
2022-08-25T12:10:26.354Z,36.63
2022-08-25T12:13:44.997Z,36.41
2022-08-25T12:16:55.772Z,36.22
2022-08-25T12:19:59.735Z,36.00
2022-08-25T12:23:02.482Z,35.44
2022-08-25T12:26:11.062Z,35.01
2022-08-25T12:29:39.349Z,34.13
2022-08-25T12:33:00.712Z,33.38
2022-08-25T12:36:06.547Z,33.24
2022-08-25T12:39:24.654Z,33.55
2022-08-25T12:42:35.549Z,33.74
2022-08-25T12:45:49.018Z,33.56
2022-08-25T12:49:04.826Z,33.64
2022-08-25T12:52:17.164Z,33.89
2022-08-25T12:55:21.102Z,33.58
2022-08-25T12:58:31.215Z,33.70
2022-08-25T13:02:22.164Z,33.72
2022-08-25T13:05:33.577Z,33.95
2022-08-25T13:08:58.113Z,34.35
2022-08-25T13:12:14.261Z,34.53
2022-08-25T13:15:37.512Z,34.52
2022-08-25T13:18:39.784Z,34.52
2022-08-25T13:21:43.324Z,34.40
2022-08-25T13:24:47.589Z,34.46
2022-08-25T13:27:55.880Z,34.60
2022-08-25T13:31:19.065Z,34.74
2022-08-25T13:34:24.245Z,35.16
2022-08-25T13:37:36.414Z,35.42
2022-08-25T13:40:38.463Z,35.35
2022-08-25T13:43:41.026Z,35.58
2022-08-25T13:46:43.112Z,35.69
2022-08-25T13:49:47.387Z,35.62
2022-08-25T13:53:06.523Z,35.57
2022-08-25T13:56:08.734Z,35.07
2022-08-25T13:59:25.243Z,34.51
2022-08-25T14:02:49.873Z,34.61
2022-08-25T14:06:05.418Z,34.71
2022-08-25T14:09:16.551Z,34.38
2022-08-25T14:12:33.751Z,33.95
2022-08-25T14:15:35.744Z,33.50
2022-08-25T14:18:37.933Z,33.39
2022-08-25T14:21:41.033Z,33.07
2022-08-25T14:24:44.014Z,32.94
2022-08-25T14:28:10.725Z,32.78
2022-08-25T14:31:16.644Z,32.55
2022-08-25T14:34:22.407Z,32.85
2022-08-25T14:37:25.855Z,32.99
2022-08-25T14:40:32.048Z,32.91
2022-08-25T14:43:37.186Z,33.00
2022-08-25T14:46:46.595Z,33.17
2022-08-25T14:49:48.921Z,33.53
2022-08-25T14:52:51.943Z,33.72
2022-08-25T14:55:58.848Z,34.06
2022-08-25T14:59:01.261Z,34.17
2022-08-25T15:02:03.066Z,34.11
2022-08-25T15:05:07.210Z,34.04
2022-08-25T15:08:33.040Z,34.41
2022-08-25T15:11:36.262Z,34.65
2022-08-25T15:14:40.841Z,34.82
2022-08-25T15:17:44.793Z,34.95
2022-08-25T15:20:46.504Z,35.02
2022-08-25T15:23:49.577Z,35.10
2022-08-25T15:26:58.651Z,35.11
2022-08-25T15:30:00.420Z,35.04
2022-08-25T15:33:02.319Z,34.70
2022-08-25T15:36:04.079Z,34.42
2022-08-25T15:39:08.025Z,34.07
2022-08-25T15:42:12.270Z,33.71
2022-08-25T15:45:14.558Z,33.38
2022-08-25T15:48:16.331Z,33.10
2022-08-25T15:51:19.065Z,32.83
2022-08-25T15:54:26.670Z,32.57
2022-08-25T15:57:28.979Z,32.38
2022-08-25T16:00:31.816Z,32.16
2022-08-25T16:03:34.549Z,31.93
2022-08-25T16:06:36.879Z,31.72
2022-08-25T16:09:38.735Z,31.55
2022-08-25T16:12:42.666Z,31.39
2022-08-25T16:15:54.211Z,31.25
2022-08-25T16:18:57.083Z,31.08
2022-08-25T16:21:59.833Z,30.96
2022-08-25T16:25:02.692Z,30.83
2022-08-25T16:28:04.452Z,30.82
2022-08-25T16:31:08.718Z,30.89
2022-08-25T16:34:10.773Z,30.95
2022-08-25T16:37:13.785Z,30.93
2022-08-25T16:40:18.651Z,30.88
2022-08-25T16:43:20.412Z,30.81
2022-08-25T16:46:23.801Z,30.76
2022-08-25T16:49:25.881Z,30.61
2022-08-25T16:53:01.393Z,30.45
2022-08-25T16:56:06.591Z,30.18
2022-08-25T16:59:12.262Z,30.01
2022-08-25T17:02:14.518Z,29.71
2022-08-25T17:05:16.413Z,29.43
2022-08-25T17:08:29.356Z,29.10
2022-08-25T17:11:40.214Z,28.91
2022-08-25T17:14:42.310Z,28.80
2022-08-25T17:17:44.125Z,28.61
2022-08-25T17:20:48.682Z,28.29
2022-08-25T17:23:55.524Z,28.03
2022-08-25T17:26:57.212Z,27.88
2022-08-25T17:29:59.392Z,27.71
2022-08-25T17:33:01.477Z,27.49
2022-08-25T17:36:04.845Z,27.23
2022-08-25T17:39:07.820Z,26.64
2022-08-25T17:42:09.550Z,26.18
2022-08-25T17:45:11.229Z,25.86
2022-08-25T17:48:14.025Z,25.63
2022-08-25T17:51:16.310Z,25.30
2022-08-25T17:54:18.164Z,25.02
2022-08-25T17:57:20.048Z,24.79
2022-08-25T18:00:23.909Z,24.61
2022-08-25T18:03:26.410Z,24.50
2022-08-25T18:06:31.122Z,24.36
2022-08-25T18:09:33.221Z,24.22
2022-08-25T18:12:35.833Z,24.12
2022-08-25T18:15:42.610Z,24.02
2022-08-25T18:18:44.930Z,23.91
2022-08-25T18:21:46.794Z,23.80
2022-08-25T18:24:48.496Z,23.68
2022-08-25T18:27:50.713Z,23.56
2022-08-25T18:30:52.633Z,23.42
2022-08-25T18:33:54.877Z,23.30
2022-08-25T18:36:56.641Z,23.15
2022-08-25T18:40:17.526Z,22.99
2022-08-25T18:43:19.648Z,22.81
2022-08-25T18:46:22.693Z,22.55
2022-08-25T18:49:26.892Z,22.31
2022-08-25T18:52:30.914Z,22.10
2022-08-25T18:55:33.562Z,21.89
2022-08-25T18:58:36.056Z,21.74
2022-08-25T19:01:38.085Z,21.62
2022-08-25T19:04:40.302Z,21.59
2022-08-25T19:07:44.073Z,21.54
2022-08-25T19:10:51.531Z,21.48
2022-08-25T19:13:53.474Z,21.39
2022-08-25T19:16:58.007Z,21.36
2022-08-25T19:20:00.338Z,21.29
2022-08-25T19:23:03.648Z,21.24
2022-08-25T19:26:17.172Z,21.22
2022-08-25T19:29:20.217Z,21.18
2022-08-25T19:32:22.194Z,21.11
2022-08-25T19:35:41.248Z,21.04
2022-08-25T19:38:44.707Z,20.95
2022-08-25T19:41:46.970Z,20.91
2022-08-25T19:44:52.726Z,20.83
2022-08-25T19:47:54.612Z,20.78
2022-08-25T19:50:56.515Z,20.70
2022-08-25T19:54:01.586Z,20.60
2022-08-25T19:57:07.873Z,20.50
2022-08-25T20:00:19.551Z,20.41
2022-08-25T20:03:21.687Z,20.36
2022-08-25T20:06:24.122Z,20.39
2022-08-25T20:09:38.829Z,20.42
2022-08-25T20:12:45.298Z,20.41
2022-08-25T20:15:47.279Z,20.37
2022-08-25T20:18:49.574Z,20.29
2022-08-25T20:21:51.434Z,20.27
2022-08-25T20:25:01.834Z,20.24
2022-08-25T20:28:04.415Z,20.19
2022-08-25T20:31:06.488Z,20.16
2022-08-25T20:34:08.989Z,20.11
2022-08-25T20:37:10.876Z,20.00
2022-08-25T20:40:14.953Z,19.85
2022-08-25T20:43:17.419Z,19.64
2022-08-25T20:46:19.648Z,19.50
2022-08-25T20:49:22.156Z,19.41
2022-08-25T20:52:23.986Z,19.26
2022-08-25T20:55:26.605Z,19.18
2022-08-25T20:58:28.674Z,19.08
2022-08-25T21:01:41.376Z,18.97
2022-08-25T21:04:49.014Z,18.86
2022-08-25T21:07:52.250Z,18.85
2022-08-25T21:10:54.213Z,18.83
2022-08-25T21:13:57.730Z,18.82
2022-08-25T21:16:59.619Z,18.79
2022-08-25T21:20:02.508Z,18.75
2022-08-25T21:23:04.328Z,18.67
2022-08-25T21:26:13.860Z,18.63
2022-08-25T21:29:16.644Z,18.63
2022-08-25T21:32:19.542Z,18.62
2022-08-25T21:35:23.576Z,18.63
2022-08-25T21:38:28.575Z,18.62
2022-08-25T21:41:33.069Z,18.64
2022-08-25T21:44:34.804Z,18.73
2022-08-25T21:47:42.578Z,18.82
2022-08-25T21:50:44.749Z,18.88
2022-08-25T21:53:47.705Z,18.92
2022-08-25T21:56:52.435Z,18.95
2022-08-25T21:59:54.993Z,18.97
2022-08-25T22:02:56.718Z,18.96
2022-08-25T22:06:02.506Z,18.95
2022-08-25T22:09:07.747Z,18.94
2022-08-25T22:12:10.486Z,18.89
2022-08-25T22:15:13.620Z,18.80
2022-08-25T22:18:15.786Z,18.76
2022-08-25T22:21:19.677Z,18.74
2022-08-25T22:24:22.250Z,18.71
2022-08-25T22:27:24.273Z,18.67
2022-08-25T22:30:29.367Z,18.59
2022-08-25T22:33:31.457Z,18.53
2022-08-25T22:36:36.375Z,18.49
2022-08-25T22:39:40.211Z,18.49
2022-08-25T22:42:46.093Z,18.47
2022-08-25T22:45:50.304Z,18.41
2022-08-25T22:48:56.276Z,18.33
2022-08-25T22:51:57.990Z,18.28
2022-08-25T22:55:00.260Z,18.27
2022-08-25T22:58:02.109Z,18.24
2022-08-25T23:01:05.498Z,18.19
2022-08-25T23:04:07.813Z,18.14
2022-08-25T23:07:29.941Z,18.09
2022-08-25T23:10:32.711Z,18.06
2022-08-25T23:13:34.774Z,17.99
2022-08-25T23:16:42.223Z,17.85
2022-08-25T23:19:44.122Z,17.53
2022-08-25T23:22:46.038Z,17.08
2022-08-25T23:25:52.853Z,16.56
2022-08-25T23:28:54.565Z,16.22
2022-08-25T23:31:57.698Z,16.07
2022-08-25T23:34:59.614Z,16.05
2022-08-25T23:38:02.008Z,16.10
2022-08-25T23:41:08.337Z,16.18
2022-08-25T23:44:11.578Z,16.25
2022-08-25T23:47:14.207Z,16.34
2022-08-25T23:50:16.099Z,16.39
2022-08-25T23:53:21.625Z,16.38
2022-08-25T23:56:24.293Z,16.42
2022-08-25T23:59:26.586Z,16.40
